createdAt,value
2023-04-07T00:00:13.832Z,8.13
2023-04-07T00:02:43.007Z,7.40
2023-04-07T00:05:10.864Z,7.43
2023-04-07T00:07:44.984Z,7.35
2023-04-07T00:10:15.479Z,7.13
2023-04-07T00:12:42.058Z,8.18
2023-04-07T00:15:09.096Z,7.80
2023-04-07T00:17:35.776Z,7.28
2023-04-07T00:20:02.390Z,6.95
2023-04-07T00:22:29.394Z,6.72
2023-04-07T00:24:55.930Z,6.85
2023-04-07T00:27:23.191Z,7.20
2023-04-07T00:29:49.814Z,7.03
2023-04-07T00:32:17.333Z,7.43
2023-04-07T00:34:43.865Z,6.88
2023-04-07T00:37:10.594Z,7.28
2023-04-07T00:39:37.241Z,6.88
2023-04-07T00:42:05.700Z,7.10
2023-04-07T00:44:32.834Z,7.32
2023-04-07T00:46:59.835Z,7.03
2023-04-07T00:49:28.430Z,6.80
2023-04-07T00:51:58.511Z,7.00
2023-04-07T00:54:25.286Z,7.43
2023-04-07T00:56:53.654Z,7.13
2023-04-07T00:59:21.786Z,7.13
2023-04-07T01:02:04.460Z,7.47
2023-04-07T01:04:59.004Z,7.57
2023-04-07T01:08:17.386Z,6.70
2023-04-07T01:11:13.100Z,6.80
2023-04-07T01:14:00.877Z,7.45
2023-04-07T01:16:59.542Z,7.35
2023-04-07T01:19:53.118Z,7.15
2023-04-07T01:22:26.701Z,7.93
2023-04-07T01:24:56.566Z,7.15
2023-04-07T01:27:42.460Z,7.93
2023-04-07T01:30:12.419Z,7.63
2023-04-07T01:32:41.636Z,7.43
2023-04-07T01:35:13.498Z,7.32
2023-04-07T01:37:40.924Z,7.43
2023-04-07T01:40:08.704Z,7.95
2023-04-07T01:42:36.769Z,7.47
2023-04-07T01:45:06.018Z,8.07
2023-04-07T01:47:34.084Z,7.57
2023-04-07T01:50:04.528Z,8.15
2023-04-07T01:52:33.564Z,7.82
2023-04-07T01:55:00.497Z,8.60
2023-04-07T01:57:27.757Z,8.18
2023-04-07T02:00:00.635Z,8.30
2023-04-07T02:02:54.434Z,8.57
2023-04-07T02:05:41.307Z,8.02
2023-04-07T02:08:32.586Z,7.80
2023-04-07T02:11:22.253Z,8.55
2023-04-07T02:14:13.825Z,7.97
2023-04-07T02:17:15.944Z,8.50
2023-04-07T02:19:46.085Z,8.45
2023-04-07T02:22:13.904Z,8.35
2023-04-07T02:24:43.553Z,8.55
2023-04-07T02:27:10.417Z,8.43
2023-04-07T02:29:36.901Z,8.77
2023-04-07T02:32:03.820Z,8.23
2023-04-07T02:34:30.411Z,10.30
2023-04-07T02:36:57.048Z,8.57
2023-04-07T02:39:23.837Z,8.82
2023-04-07T02:41:50.353Z,8.45
2023-04-07T02:44:17.022Z,8.13
2023-04-07T02:46:43.538Z,8.68
2023-04-07T02:49:10.282Z,8.90
2023-04-07T02:51:38.204Z,8.70
2023-04-07T02:54:05.018Z,9.32
2023-04-07T02:56:32.581Z,9.40
2023-04-07T02:58:59.094Z,9.73
2023-04-07T03:01:25.899Z,8.57
2023-04-07T03:03:53.162Z,8.98
2023-04-07T03:06:23.271Z,8.95
2023-04-07T03:09:16.645Z,8.23
2023-04-07T03:11:43.186Z,8.10
2023-04-07T03:14:10.336Z,8.30
2023-04-07T03:16:44.487Z,7.50
2023-04-07T03:19:13.047Z,8.18
2023-04-07T03:21:45.507Z,7.97
2023-04-07T03:24:12.103Z,8.50
2023-04-07T03:26:38.911Z,7.18
2023-04-07T03:29:10.972Z,6.75
2023-04-07T03:31:40.506Z,6.22
2023-04-07T03:34:07.261Z,7.20
2023-04-07T03:36:33.874Z,7.13
2023-04-07T03:39:03.877Z,7.25
2023-04-07T03:41:30.970Z,7.03
2023-04-07T03:43:57.625Z,7.57
2023-04-07T03:46:27.146Z,7.45
2023-04-07T03:48:54.256Z,7.65
2023-04-07T03:51:21.963Z,7.75
2023-04-07T03:53:53.528Z,8.13
2023-04-07T03:56:34.052Z,9.30
2023-04-07T03:59:00.593Z,9.18
2023-04-07T04:01:36.260Z,9.63
2023-04-07T04:04:09.499Z,8.98
2023-04-07T04:06:36.262Z,9.10
2023-04-07T04:09:15.595Z,9.15
2023-04-07T04:11:45.743Z,9.43
2023-04-07T04:14:12.900Z,9.05
2023-04-07T04:16:40.948Z,8.88
2023-04-07T04:19:24.127Z,8.60
2023-04-07T04:21:51.470Z,9.88
2023-04-07T04:24:18.042Z,9.00
2023-04-07T04:26:46.267Z,9.70
2023-04-07T04:29:14.097Z,9.60
2023-04-07T04:31:43.004Z,9.65
2023-04-07T04:34:10.358Z,9.27
2023-04-07T04:36:39.137Z,10.18
2023-04-07T04:39:06.100Z,9.45
2023-04-07T04:41:34.329Z,9.77
2023-04-07T04:44:01.841Z,9.05
2023-04-07T04:46:29.014Z,9.27
2023-04-07T04:48:55.559Z,9.40
2023-04-07T04:51:24.147Z,8.77
2023-04-07T04:53:56.017Z,9.13
2023-04-07T04:56:24.557Z,9.52
2023-04-07T04:58:51.528Z,8.85
2023-04-07T05:01:36.683Z,8.63
2023-04-07T05:04:09.670Z,8.55
2023-04-07T05:06:38.979Z,8.23
2023-04-07T05:09:10.336Z,8.13
2023-04-07T05:11:42.576Z,8.55
2023-04-07T05:14:09.525Z,8.85
2023-04-07T05:16:42.362Z,8.48
2023-04-07T05:19:11.944Z,8.30
2023-04-07T05:21:38.386Z,7.43
2023-04-07T05:24:08.116Z,6.78
2023-04-07T05:26:36.044Z,6.97
2023-04-07T05:29:05.278Z,6.22
2023-04-07T05:31:31.929Z,6.28
2023-04-07T05:33:59.979Z,6.25
2023-04-07T05:36:31.874Z,6.20
2023-04-07T05:38:58.362Z,6.50
2023-04-07T05:41:26.199Z,5.78
2023-04-07T05:43:53.008Z,6.68
2023-04-07T05:46:19.704Z,6.20
2023-04-07T05:48:53.899Z,5.55
2023-04-07T05:51:21.202Z,6.82
2023-04-07T05:53:48.166Z,6.03
2023-04-07T05:56:16.478Z,7.45
2023-04-07T05:58:47.340Z,7.65
2023-04-07T06:01:15.507Z,8.52
2023-04-07T06:03:42.815Z,9.05
2023-04-07T06:06:21.420Z,9.77
2023-04-07T06:08:47.991Z,8.85
2023-04-07T06:11:14.508Z,9.23
2023-04-07T06:13:41.315Z,9.52
2023-04-07T06:16:08.708Z,8.77
2023-04-07T06:18:37.111Z,10.45
2023-04-07T06:21:06.209Z,9.85
2023-04-07T06:23:32.663Z,10.07
2023-04-07T06:25:59.255Z,9.65
2023-04-07T06:28:25.880Z,9.82
2023-04-07T06:30:52.482Z,10.68
2023-04-07T06:33:23.886Z,10.73
2023-04-07T06:35:50.608Z,10.27
2023-04-07T06:38:17.645Z,10.05
2023-04-07T06:40:44.233Z,10.32
2023-04-07T06:43:10.707Z,9.18
2023-04-07T06:45:44.364Z,9.90
2023-04-07T06:48:10.941Z,9.80
2023-04-07T06:50:41.308Z,8.93
2023-04-07T06:53:07.984Z,9.10
2023-04-07T06:55:34.642Z,9.05
2023-04-07T06:58:01.529Z,8.38
2023-04-07T07:00:30.263Z,8.70
2023-04-07T07:02:57.668Z,8.82
2023-04-07T07:05:24.721Z,8.15
2023-04-07T07:07:52.033Z,7.80
2023-04-07T07:10:20.486Z,7.60
2023-04-07T07:12:46.995Z,7.07
2023-04-07T07:15:13.473Z,6.35
2023-04-07T07:17:40.014Z,6.00
2023-04-07T07:20:07.154Z,8.70
2023-04-07T07:22:33.728Z,6.70
2023-04-07T07:25:00.351Z,7.03
2023-04-07T07:27:27.009Z,7.28
2023-04-07T07:29:53.707Z,7.13
2023-04-07T07:32:20.525Z,7.05
2023-04-07T07:34:47.027Z,7.00
2023-04-07T07:37:13.733Z,7.72
2023-04-07T07:39:40.251Z,7.20
2023-04-07T07:42:06.721Z,7.10
2023-04-07T07:44:33.176Z,6.90
2023-04-07T07:46:59.669Z,7.63
2023-04-07T07:49:27.115Z,7.22
2023-04-07T07:51:53.688Z,7.55
2023-04-07T07:54:20.319Z,6.45
2023-04-07T07:56:46.771Z,6.35
2023-04-07T07:59:13.515Z,6.43
2023-04-07T08:01:40.285Z,6.55
2023-04-07T08:04:06.912Z,6.50
2023-04-07T08:06:33.441Z,6.43
2023-04-07T08:09:00.073Z,6.82
2023-04-07T08:11:26.746Z,5.53
2023-04-07T08:13:53.913Z,6.68
2023-04-07T08:16:22.013Z,6.65
2023-04-07T08:18:49.130Z,7.53
2023-04-07T08:21:16.198Z,7.78
2023-04-07T08:23:42.814Z,7.45
2023-04-07T08:26:09.733Z,7.72
2023-04-07T08:28:36.307Z,8.65
2023-04-07T08:31:03.151Z,7.18
2023-04-07T08:33:29.747Z,7.72
2023-04-07T08:35:56.808Z,7.20
2023-04-07T08:38:23.458Z,8.63
2023-04-07T08:40:58.506Z,6.88
2023-04-07T08:43:26.802Z,7.82
2023-04-07T08:45:56.691Z,7.32
2023-04-07T08:48:28.672Z,7.57
2023-04-07T08:50:56.515Z,7.22
2023-04-07T08:53:37.990Z,7.97
2023-04-07T08:56:06.333Z,7.35
2023-04-07T08:58:33.397Z,7.13
2023-04-07T09:01:00.576Z,8.00
2023-04-07T09:03:27.672Z,8.07
2023-04-07T09:05:56.494Z,6.82
2023-04-07T09:08:22.960Z,7.50
2023-04-07T09:10:49.877Z,7.15
2023-04-07T09:13:16.374Z,7.93
2023-04-07T09:15:43.468Z,7.03
2023-04-07T09:18:10.199Z,7.40
2023-04-07T09:20:58.236Z,6.90
2023-04-07T09:23:30.005Z,7.47
2023-04-07T09:25:59.616Z,7.90
2023-04-07T09:28:26.483Z,8.57
2023-04-07T09:30:54.528Z,8.07
2023-04-07T09:33:28.454Z,7.45
2023-04-07T09:35:55.575Z,7.28
2023-04-07T09:38:22.854Z,7.03
2023-04-07T09:40:49.626Z,7.32
2023-04-07T09:43:19.495Z,5.97
2023-04-07T09:45:46.160Z,6.35
2023-04-07T09:48:20.832Z,6.68
2023-04-07T09:50:51.906Z,6.00
2023-04-07T09:53:23.081Z,6.57
2023-04-07T09:55:50.159Z,6.70
2023-04-07T09:58:17.167Z,6.00
2023-04-07T10:00:44.300Z,5.78
2023-04-07T10:03:11.141Z,5.15
2023-04-07T10:05:39.169Z,5.25
2023-04-07T10:08:09.997Z,5.25
2023-04-07T10:10:37.060Z,5.22
2023-04-07T10:13:06.251Z,4.97
2023-04-07T10:15:33.330Z,5.78
2023-04-07T10:18:00.843Z,3.78
2023-04-07T10:20:28.980Z,4.20
2023-04-07T10:23:04.249Z,4.75
2023-04-07T10:25:31.424Z,3.85
2023-04-07T10:28:03.653Z,4.43
2023-04-07T10:30:32.576Z,5.18
2023-04-07T10:32:59.380Z,4.20
2023-04-07T10:35:26.115Z,4.45
2023-04-07T10:38:08.171Z,4.38
2023-04-07T10:40:35.860Z,4.82
2023-04-07T10:43:02.912Z,5.15
2023-04-07T10:45:54.349Z,5.03
2023-04-07T10:48:21.596Z,4.43
2023-04-07T10:51:07.674Z,4.45
2023-04-07T10:53:37.173Z,5.25
2023-04-07T10:56:03.810Z,4.60
2023-04-07T10:58:33.913Z,4.90
2023-04-07T11:01:03.862Z,5.78
2023-04-07T11:03:34.137Z,5.60
2023-04-07T11:08:40.427Z,5.68
2023-04-07T11:11:11.079Z,5.38
2023-04-07T11:13:41.677Z,5.32
2023-04-07T11:16:10.100Z,7.75
2023-04-07T11:18:37.579Z,6.13
2023-04-07T11:21:06.293Z,4.55
2023-04-07T11:23:43.939Z,5.25
2023-04-07T11:26:13.631Z,5.13
2023-04-07T11:28:52.705Z,4.67
2023-04-07T11:31:24.486Z,5.10
2023-04-07T11:34:02.347Z,4.72
2023-04-07T11:36:39.281Z,5.38
2023-04-07T11:39:07.161Z,4.63
2023-04-07T11:41:33.840Z,5.22
2023-04-07T11:44:05.674Z,4.13
2023-04-07T11:46:32.298Z,3.88
2023-04-07T11:49:12.954Z,3.35
2023-04-07T11:51:40.408Z,2.90
2023-04-07T11:54:07.247Z,2.83
2023-04-07T11:56:46.007Z,3.35
2023-04-07T11:59:24.529Z,3.58
2023-04-07T12:01:55.273Z,3.50
2023-04-07T12:04:23.985Z,4.72
2023-04-07T12:06:51.429Z,3.78
2023-04-07T12:09:32.201Z,3.55
2023-04-07T12:11:58.925Z,3.15
2023-04-07T12:14:27.577Z,2.95
2023-04-07T12:16:56.520Z,2.67
2023-04-07T12:19:24.225Z,2.33
2023-04-07T12:21:50.729Z,2.78
2023-04-07T12:24:17.738Z,2.90
2023-04-07T12:26:44.521Z,3.58
2023-04-07T12:29:11.143Z,5.18
2023-04-07T12:31:37.686Z,10.70
2023-04-07T12:34:04.291Z,4.15
2023-04-07T12:36:31.052Z,3.40
2023-04-07T12:38:57.489Z,3.47
2023-04-07T12:41:24.964Z,2.88
2023-04-07T12:43:52.161Z,3.65
2023-04-07T12:46:19.635Z,4.93
2023-04-07T12:48:47.738Z,3.47
2023-04-07T12:51:14.232Z,2.70
2023-04-07T12:53:40.680Z,3.08
2023-04-07T12:56:09.386Z,5.38
2023-04-07T12:58:36.022Z,3.35
2023-04-07T13:01:02.612Z,2.90
2023-04-07T13:03:29.341Z,2.72
2023-04-07T13:05:56.008Z,2.40
2023-04-07T13:08:22.570Z,7.20
2023-04-07T13:10:49.176Z,3.00
2023-04-07T13:13:15.968Z,3.20
2023-04-07T13:15:42.433Z,2.70
2023-04-07T13:18:09.130Z,3.78
2023-04-07T13:20:35.818Z,3.40
2023-04-07T13:23:08.182Z,2.95
2023-04-07T13:25:36.450Z,2.45
2023-04-07T13:28:03.492Z,2.72
2023-04-07T13:30:30.125Z,3.80
2023-04-07T13:32:57.384Z,2.30
2023-04-07T13:35:24.065Z,2.40
2023-04-07T13:37:50.731Z,2.55
2023-04-07T13:40:17.286Z,2.97
2023-04-07T13:42:43.950Z,2.35
2023-04-07T13:45:10.728Z,2.92
2023-04-07T13:47:37.510Z,3.03
2023-04-07T13:50:04.433Z,2.42
2023-04-07T13:52:35.065Z,2.90
2023-04-07T13:55:03.669Z,3.20
2023-04-07T13:57:30.500Z,7.55
2023-04-07T13:59:57.091Z,1.73
2023-04-07T14:02:24.929Z,1.65
2023-04-07T14:05:06.782Z,1.80
2023-04-07T14:07:49.087Z,1.90
2023-04-07T14:10:31.980Z,2.13
2023-04-07T14:12:58.965Z,1.90
2023-04-07T14:15:37.980Z,2.33
2023-04-07T14:18:14.368Z,2.45
2023-04-07T14:21:04.055Z,2.47
2023-04-07T14:23:37.729Z,2.38
2023-04-07T14:26:16.829Z,1.92
2023-04-07T14:28:51.037Z,2.00
2023-04-07T14:31:18.311Z,2.00
2023-04-07T14:33:52.772Z,1.95
2023-04-07T14:36:24.943Z,1.88
2023-04-07T14:39:00.691Z,1.40
2023-04-07T14:41:47.921Z,1.50
2023-04-07T14:44:38.658Z,1.02
2023-04-07T14:47:11.580Z,1.10
2023-04-07T14:49:53.231Z,0.80
2023-04-07T14:52:30.323Z,0.70
2023-04-07T14:55:03.062Z,0.60
2023-04-07T14:57:38.552Z,0.40
2023-04-07T15:00:25.579Z,1.08
2023-04-07T15:03:11.062Z,0.88
2023-04-07T15:05:46.166Z,1.00
2023-04-07T15:08:22.684Z,1.52
2023-04-07T15:11:21.992Z,1.45
2023-04-07T15:14:00.105Z,1.50
2023-04-07T15:16:59.167Z,1.60
2023-04-07T15:19:46.510Z,1.85
2023-04-07T15:22:17.444Z,1.90
2023-04-07T15:24:54.384Z,1.85
2023-04-07T15:27:29.637Z,1.60
2023-04-07T15:30:11.048Z,1.98
2023-04-07T15:33:12.032Z,1.70
2023-04-07T15:36:12.183Z,1.80
2023-04-07T15:38:51.196Z,2.05
2023-04-07T15:41:51.343Z,3.13
2023-04-07T15:44:21.242Z,2.95
2023-04-07T15:46:48.058Z,2.45
2023-04-07T15:49:19.970Z,2.75
2023-04-07T15:51:46.793Z,3.45
2023-04-07T15:54:13.579Z,2.95
2023-04-07T15:56:40.213Z,2.80
2023-04-07T15:59:07.259Z,2.47
2023-04-07T16:01:33.891Z,2.80
2023-04-07T16:04:02.532Z,2.45
2023-04-07T16:06:31.702Z,2.03
2023-04-07T16:08:58.306Z,1.90
2023-04-07T16:11:24.725Z,2.17
2023-04-07T16:13:51.435Z,2.03
2023-04-07T16:16:19.208Z,1.65
2023-04-07T16:18:46.472Z,1.45
2023-04-07T16:21:13.042Z,1.83
2023-04-07T16:23:39.668Z,2.25
2023-04-07T16:26:06.277Z,1.73
2023-04-07T16:28:32.830Z,1.95
2023-04-07T16:30:59.477Z,2.05
2023-04-07T16:33:26.298Z,1.80
2023-04-07T16:35:52.996Z,1.88
2023-04-07T16:38:19.558Z,1.50
2023-04-07T16:41:00.705Z,1.90
2023-04-07T16:43:29.898Z,2.00
2023-04-07T16:45:56.507Z,2.20
2023-04-07T16:48:23.037Z,2.30
2023-04-07T16:50:49.586Z,2.55
2023-04-07T16:53:16.297Z,3.92
2023-04-07T16:55:42.799Z,2.45
2023-04-07T16:58:09.574Z,2.50
2023-04-07T17:00:36.346Z,2.60
2023-04-07T17:03:02.988Z,3.05
2023-04-07T17:05:29.663Z,3.00
2023-04-07T17:07:57.279Z,2.95
2023-04-07T17:10:24.270Z,3.38
2023-04-07T17:12:54.130Z,3.25
2023-04-07T17:15:20.868Z,3.20
2023-04-07T17:17:47.430Z,2.97
2023-04-07T17:20:14.828Z,2.58
2023-04-07T17:22:41.532Z,2.72
2023-04-07T17:25:08.815Z,2.90
2023-04-07T17:27:35.881Z,2.72
2023-04-07T17:30:03.878Z,2.60
2023-04-07T17:32:30.790Z,2.70
2023-04-07T17:34:57.468Z,2.63
2023-04-07T17:37:24.123Z,2.50
2023-04-07T17:39:50.800Z,2.92
2023-04-07T17:42:17.226Z,2.35
2023-04-07T17:44:43.843Z,2.65
2023-04-07T17:47:10.605Z,2.58
2023-04-07T17:49:37.049Z,2.85
2023-04-07T17:52:03.969Z,2.45
2023-04-07T17:54:30.509Z,2.30
2023-04-07T17:56:58.135Z,2.30
2023-04-07T17:59:24.623Z,1.80
2023-04-07T18:01:51.358Z,2.17
2023-04-07T18:04:18.058Z,2.30
2023-04-07T18:06:45.122Z,2.47
2023-04-07T18:09:11.669Z,2.40
2023-04-07T18:11:38.550Z,2.60
2023-04-07T18:14:05.034Z,2.17
2023-04-07T18:16:31.582Z,2.53
2023-04-07T18:18:58.147Z,2.85
2023-04-07T18:21:24.841Z,3.40
2023-04-07T18:23:51.830Z,3.63
2023-04-07T18:26:18.294Z,3.83
2023-04-07T18:28:44.996Z,3.65
2023-04-07T18:31:12.442Z,3.95
2023-04-07T18:33:39.084Z,4.47
2023-04-07T18:36:07.671Z,4.20
2023-04-07T18:38:35.422Z,4.53
2023-04-07T18:41:02.488Z,4.47
2023-04-07T18:43:29.990Z,4.00
2023-04-07T18:45:56.429Z,4.13
2023-04-07T18:48:23.097Z,4.53
2023-04-07T18:50:54.301Z,4.35
2023-04-07T18:53:22.206Z,4.65
2023-04-07T18:55:49.660Z,4.55
2023-04-07T18:58:16.257Z,4.18
2023-04-07T19:00:43.800Z,4.30
2023-04-07T19:03:10.739Z,4.30
2023-04-07T19:05:39.658Z,4.30
2023-04-07T19:08:06.526Z,4.10
2023-04-07T19:10:33.169Z,4.00
2023-04-07T19:13:00.842Z,3.58
2023-04-07T19:15:29.621Z,3.75
2023-04-07T19:17:56.160Z,3.78
2023-04-07T19:20:22.850Z,3.75
2023-04-07T19:22:49.315Z,3.90
2023-04-07T19:25:15.843Z,4.00
2023-04-07T19:27:42.386Z,3.83
2023-04-07T19:30:09.334Z,3.80
2023-04-07T19:32:36.461Z,3.67
2023-04-07T19:35:03.116Z,3.65
2023-04-07T19:37:29.730Z,3.55
2023-04-07T19:40:02.963Z,3.85
2023-04-07T19:42:30.985Z,3.65
2023-04-07T19:45:00.389Z,3.63
2023-04-07T19:47:29.982Z,4.15
2023-04-07T19:49:56.676Z,3.70
2023-04-07T19:52:23.415Z,3.70
2023-04-07T19:54:49.870Z,3.80
2023-04-07T19:57:16.410Z,4.28
2023-04-07T19:59:43.122Z,4.78
2023-04-07T20:02:09.743Z,4.05
2023-04-07T20:04:36.233Z,4.05
2023-04-07T20:07:02.758Z,4.43
2023-04-07T20:09:29.440Z,4.30
2023-04-07T20:11:57.409Z,5.57
2023-04-07T20:14:24.152Z,4.70
2023-04-07T20:16:50.711Z,5.13
2023-04-07T20:19:17.430Z,5.28
2023-04-07T20:21:44.030Z,5.20
2023-04-07T20:24:11.097Z,5.15
2023-04-07T20:26:37.573Z,4.75
2023-04-07T20:29:04.156Z,5.13
2023-04-07T20:31:30.964Z,4.03
2023-04-07T20:33:59.194Z,4.30
2023-04-07T20:36:26.359Z,4.10
2023-04-07T20:38:54.426Z,4.60
2023-04-07T20:41:22.400Z,3.67
2023-04-07T20:43:51.299Z,3.90
2023-04-07T20:46:19.070Z,4.53
2023-04-07T20:48:45.675Z,4.20
2023-04-07T20:51:12.360Z,3.95
2023-04-07T20:53:39.595Z,4.40
2023-04-07T20:56:06.532Z,4.72
2023-04-07T20:58:33.055Z,4.75
2023-04-07T21:01:00.735Z,4.00
2023-04-07T21:03:28.705Z,4.57
2023-04-07T21:05:56.713Z,4.43
2023-04-07T21:08:24.592Z,4.07
2023-04-07T21:10:52.471Z,3.53
2023-04-07T21:13:19.768Z,3.90
2023-04-07T21:15:46.330Z,3.58
2023-04-07T21:18:13.092Z,3.60
2023-04-07T21:20:39.931Z,3.58
2023-04-07T21:23:08.413Z,3.30
2023-04-07T21:25:38.358Z,3.70
2023-04-07T21:28:05.855Z,3.40
2023-04-07T21:30:33.195Z,3.92
2023-04-07T21:33:00.004Z,3.72
2023-04-07T21:35:28.704Z,3.67
2023-04-07T21:37:55.935Z,4.20
2023-04-07T21:40:22.750Z,4.10
2023-04-07T21:42:49.563Z,4.13
2023-04-07T21:45:16.091Z,3.75
2023-04-07T21:47:42.817Z,3.42
2023-04-07T21:50:09.880Z,3.45
2023-04-07T21:52:36.442Z,3.00
2023-04-07T21:55:03.097Z,3.47
2023-04-07T21:57:29.614Z,2.97
2023-04-07T21:59:56.425Z,3.22
2023-04-07T22:02:23.140Z,3.00
2023-04-07T22:04:49.871Z,3.08
2023-04-07T22:07:16.462Z,3.78
2023-04-07T22:09:43.120Z,3.72
2023-04-07T22:12:09.753Z,3.53
2023-04-07T22:14:36.318Z,3.90
2023-04-07T22:17:02.796Z,3.80
2023-04-07T22:19:29.253Z,3.35
2023-04-07T22:21:55.695Z,3.67
2023-04-07T22:24:22.116Z,3.17
2023-04-07T22:26:48.708Z,3.33
2023-04-07T22:29:15.588Z,3.30
2023-04-07T22:31:42.261Z,3.50
2023-04-07T22:34:09.837Z,3.58
2023-04-07T22:36:36.621Z,3.58
2023-04-07T22:39:03.409Z,3.75
2023-04-07T22:41:29.900Z,4.05
2023-04-07T22:43:56.913Z,3.30
2023-04-07T22:46:23.468Z,3.45
2023-04-07T22:48:50.025Z,3.72
2023-04-07T22:51:16.795Z,3.80
2023-04-07T22:53:43.375Z,3.65
2023-04-07T22:56:09.866Z,3.50
2023-04-07T22:58:36.391Z,3.45
2023-04-07T23:01:02.904Z,3.35
2023-04-07T23:03:29.671Z,3.30
2023-04-07T23:05:56.232Z,3.03
2023-04-07T23:08:23.148Z,2.97
2023-04-07T23:10:49.679Z,2.83
2023-04-07T23:13:18.762Z,3.15
2023-04-07T23:15:46.114Z,3.22
2023-04-07T23:18:12.668Z,3.35
2023-04-07T23:20:39.252Z,3.55
2023-04-07T23:23:05.707Z,3.80
2023-04-07T23:25:32.101Z,3.30
2023-04-07T23:27:58.606Z,3.15
2023-04-07T23:30:25.556Z,3.53
2023-04-07T23:32:52.517Z,3.00
2023-04-07T23:35:19.070Z,3.17
2023-04-07T23:37:45.686Z,3.20
2023-04-07T23:40:12.795Z,3.42
2023-04-07T23:42:39.429Z,3.38
2023-04-07T23:45:06.970Z,3.50
2023-04-07T23:47:33.521Z,3.17
2023-04-07T23:50:00.437Z,3.28
2023-04-07T23:52:27.120Z,3.55
2023-04-07T23:54:53.656Z,3.60
2023-04-07T23:57:20.107Z,3.13
2023-04-07T23:59:46.660Z,3.17
